createdAt,value
2023-08-21T00:00:51.965Z,1251.67
2023-08-21T00:03:21.782Z,1058.30
2023-08-21T00:05:51.610Z,1040.23
2023-08-21T00:08:21.421Z,957.77
2023-08-21T00:10:52.676Z,1013.07
2023-08-21T00:13:22.456Z,914.53
2023-08-21T00:15:52.916Z,923.77
2023-08-21T00:18:24.179Z,1018.53
2023-08-21T00:20:53.965Z,1135.80
2023-08-21T00:23:23.754Z,993.40
2023-08-21T00:25:54.907Z,970.20
2023-08-21T00:28:24.793Z,1013.90
2023-08-21T00:31:02.428Z,1009.70
2023-08-21T00:33:32.892Z,1168.10
2023-08-21T00:36:02.775Z,1138.87
2023-08-21T00:38:32.585Z,1086.13
2023-08-21T00:41:03.975Z,1234.40
2023-08-21T00:43:35.709Z,1069.40
2023-08-21T00:46:05.882Z,1130.07
2023-08-21T00:48:36.064Z,1114.23
2023-08-21T00:51:07.754Z,1138.47
2023-08-21T00:53:37.567Z,1126.80
2023-08-21T00:56:09.711Z,1070.83
2023-08-21T00:58:39.752Z,1090.10
2023-08-21T01:01:10.445Z,975.93
2023-08-21T01:03:40.272Z,870.73
2023-08-21T01:06:10.256Z,929.20
2023-08-21T01:08:49.219Z,1084.73
2023-08-21T01:11:27.513Z,1105.37
2023-08-21T01:14:03.020Z,945.80
2023-08-21T01:16:34.717Z,990.57
2023-08-21T01:19:11.165Z,1059.60
2023-08-21T01:21:40.987Z,890.93
2023-08-21T01:24:12.164Z,989.37
2023-08-21T01:26:44.438Z,730.03
2023-08-21T01:29:14.798Z,689.97
2023-08-21T01:31:49.137Z,706.00
2023-08-21T01:34:19.279Z,816.83
2023-08-21T01:36:50.088Z,883.70
2023-08-21T01:39:21.438Z,941.47
2023-08-21T01:41:51.341Z,891.50
2023-08-21T01:44:21.097Z,831.10
2023-08-21T01:46:50.875Z,928.43
2023-08-21T01:49:20.680Z,937.03
2023-08-21T01:51:50.540Z,795.50
2023-08-21T01:54:21.683Z,859.97
2023-08-21T01:56:51.522Z,827.40
2023-08-21T01:59:22.264Z,725.60
2023-08-21T02:01:52.130Z,850.17
2023-08-21T02:04:22.739Z,750.17
2023-08-21T02:06:52.529Z,561.63
2023-08-21T02:09:23.682Z,582.97
2023-08-21T02:11:53.502Z,603.80
2023-08-21T02:14:23.298Z,633.00
2023-08-21T02:16:53.136Z,522.07
2023-08-21T02:19:22.939Z,505.80
2023-08-21T02:21:52.725Z,405.37
2023-08-21T02:24:23.884Z,455.93
2023-08-21T02:26:53.700Z,611.63
2023-08-21T02:29:23.646Z,843.00
2023-08-21T02:31:53.442Z,803.23
2023-08-21T02:34:23.236Z,938.60
2023-08-21T02:36:53.043Z,873.23
2023-08-21T02:39:24.739Z,831.90
2023-08-21T02:41:54.618Z,800.67
2023-08-21T02:44:24.419Z,957.40
2023-08-21T02:46:54.257Z,948.30
2023-08-21T02:49:24.373Z,810.70
2023-08-21T02:51:54.171Z,908.73
2023-08-21T02:54:25.375Z,824.17
2023-08-21T02:56:55.213Z,956.27
2023-08-21T02:59:24.981Z,827.43
2023-08-21T03:01:55.014Z,768.20
2023-08-21T03:04:24.857Z,869.43
2023-08-21T03:06:54.687Z,808.43
2023-08-21T03:09:25.859Z,705.50
2023-08-21T03:11:55.647Z,781.37
2023-08-21T03:14:28.238Z,969.40
2023-08-21T03:16:58.194Z,907.97
2023-08-21T03:19:28.066Z,834.83
2023-08-21T03:21:58.007Z,481.77
2023-08-21T03:24:29.296Z,648.93
2023-08-21T03:26:59.258Z,701.07
2023-08-21T03:29:29.102Z,903.63
2023-08-21T03:31:59.897Z,919.07
2023-08-21T03:34:29.954Z,1002.00
2023-08-21T03:37:04.321Z,913.50
2023-08-21T03:39:37.357Z,912.80
2023-08-21T03:42:07.441Z,939.90
2023-08-21T03:44:37.282Z,909.77
2023-08-21T03:47:07.118Z,870.13
2023-08-21T03:49:43.634Z,835.13
2023-08-21T03:52:13.408Z,810.57
2023-08-21T03:54:44.539Z,821.17
2023-08-21T03:57:14.312Z,612.23
2023-08-21T03:59:44.256Z,488.10
2023-08-21T04:02:14.194Z,486.13
2023-08-21T04:04:44.237Z,571.67
2023-08-21T04:07:14.729Z,600.70
2023-08-21T04:09:46.894Z,732.30
2023-08-21T04:12:16.772Z,725.60
2023-08-21T04:14:46.562Z,792.03
2023-08-21T04:17:22.740Z,723.07
2023-08-21T04:19:52.579Z,812.80
2023-08-21T04:22:22.562Z,853.07
2023-08-21T04:24:53.695Z,751.37
2023-08-21T04:27:23.455Z,675.90
2023-08-21T04:29:53.242Z,512.67
2023-08-21T04:32:23.253Z,530.77
2023-08-21T04:34:53.863Z,672.27
2023-08-21T04:37:23.648Z,807.10
2023-08-21T04:39:56.168Z,689.10
2023-08-21T04:42:25.949Z,620.73
2023-08-21T04:44:55.861Z,674.50
2023-08-21T04:47:27.519Z,617.63
2023-08-21T04:50:00.340Z,362.03
2023-08-21T04:52:33.324Z,439.73
2023-08-21T04:55:05.461Z,547.67
2023-08-21T04:57:37.199Z,668.10
2023-08-21T05:00:11.712Z,661.80
2023-08-21T05:02:45.347Z,545.83
2023-08-21T05:05:16.218Z,489.07
2023-08-21T05:07:46.489Z,414.53
2023-08-21T05:10:17.956Z,463.43
2023-08-21T05:12:48.164Z,546.63
2023-08-21T05:15:18.150Z,597.30
2023-08-21T05:17:49.405Z,684.23
2023-08-21T05:20:19.458Z,638.10
2023-08-21T05:22:49.285Z,809.17
2023-08-21T05:25:20.797Z,864.10
2023-08-21T05:27:50.998Z,937.33
2023-08-21T05:30:20.925Z,818.17
2023-08-21T05:32:50.909Z,878.90
2023-08-21T05:35:21.438Z,831.37
2023-08-21T05:37:53.639Z,913.67
2023-08-21T05:40:25.618Z,1028.83
2023-08-21T05:42:55.597Z,1015.60
2023-08-21T05:45:25.459Z,988.13
2023-08-21T05:47:55.784Z,992.73
2023-08-21T05:50:25.567Z,909.87
2023-08-21T05:52:55.657Z,886.80
2023-08-21T05:55:27.182Z,812.30
2023-08-21T05:57:57.271Z,922.00
2023-08-21T06:00:28.164Z,920.30
2023-08-21T06:02:57.897Z,1067.63
2023-08-21T06:05:48.127Z,865.50
2023-08-21T06:08:19.235Z,870.77
2023-08-21T06:10:54.171Z,955.17
2023-08-21T06:13:24.081Z,922.07
2023-08-21T06:15:57.344Z,820.57
2023-08-21T06:18:28.515Z,983.93
2023-08-21T06:20:58.334Z,967.73
2023-08-21T06:23:28.104Z,959.83
2023-08-21T06:26:00.193Z,1150.40
2023-08-21T06:28:30.243Z,526.87
2023-08-21T06:31:00.149Z,344.37
2023-08-21T06:33:31.427Z,449.10
2023-08-21T06:36:01.418Z,349.07
2023-08-21T06:38:31.252Z,213.87
2023-08-21T06:41:06.609Z,274.83
2023-08-21T06:43:41.132Z,159.87
2023-08-21T06:46:13.487Z,199.10
2023-08-21T06:48:45.319Z,190.20
2023-08-21T06:51:17.199Z,142.83
2023-08-21T06:53:47.993Z,92.57
2023-08-21T06:56:19.099Z,82.43
2023-08-21T06:58:49.261Z,118.83
2023-08-21T07:01:19.262Z,85.50
2023-08-21T07:03:49.132Z,100.47
2023-08-21T07:06:18.990Z,94.30
2023-08-21T07:08:48.880Z,94.47
2023-08-21T07:11:20.034Z,100.27
2023-08-21T07:13:49.839Z,106.93
2023-08-21T07:16:20.166Z,107.33
2023-08-21T07:18:49.968Z,105.23
2023-08-21T07:21:32.392Z,98.33
2023-08-21T07:24:04.938Z,100.77
2023-08-21T07:26:36.195Z,96.73
2023-08-21T07:29:06.272Z,85.77
2023-08-21T07:31:36.147Z,68.07
2023-08-21T07:34:05.954Z,59.27
2023-08-21T07:36:35.813Z,73.97
2023-08-21T07:39:05.724Z,78.77
2023-08-21T07:41:37.266Z,68.00
2023-08-21T07:44:07.022Z,74.03
2023-08-21T07:46:37.230Z,74.30
2023-08-21T07:49:07.074Z,63.97
2023-08-21T07:51:36.832Z,77.10
2023-08-21T07:54:06.627Z,78.27
2023-08-21T07:56:40.899Z,76.13
2023-08-21T07:59:11.087Z,93.57
2023-08-21T08:01:41.471Z,84.93
2023-08-21T08:04:13.010Z,97.50
2023-08-21T08:06:43.525Z,87.63
2023-08-21T08:09:13.287Z,113.60
2023-08-21T08:11:44.606Z,84.00
2023-08-21T08:14:14.367Z,86.73
2023-08-21T08:16:44.451Z,83.40
2023-08-21T08:19:14.239Z,79.80
2023-08-21T08:21:44.698Z,78.50
2023-08-21T08:24:15.092Z,67.80
2023-08-21T08:26:47.136Z,82.80
2023-08-21T08:29:16.925Z,68.50
2023-08-21T08:31:47.211Z,70.47
2023-08-21T08:34:19.144Z,58.90
2023-08-21T08:36:48.952Z,61.90
2023-08-21T08:39:19.741Z,62.10
2023-08-21T08:41:57.460Z,63.60
2023-08-21T08:44:28.065Z,58.90
2023-08-21T08:46:58.293Z,60.20
2023-08-21T08:49:29.024Z,60.17
2023-08-21T08:52:00.157Z,61.80
2023-08-21T08:54:32.445Z,65.93
2023-08-21T08:57:03.707Z,65.93
2023-08-21T08:59:35.156Z,61.80
2023-08-21T09:02:05.451Z,62.97
2023-08-21T09:04:35.645Z,73.00
2023-08-21T09:07:09.162Z,60.20
2023-08-21T09:09:43.372Z,70.50
2023-08-21T09:12:15.815Z,73.37
2023-08-21T09:14:46.685Z,65.43
2023-08-21T09:17:18.130Z,67.50
2023-08-21T09:19:48.252Z,63.57
2023-08-21T09:22:19.832Z,80.73
2023-08-21T09:25:07.443Z,69.30
2023-08-21T09:27:41.173Z,67.60
2023-08-21T09:30:17.164Z,61.20
2023-08-21T09:32:57.487Z,61.90
2023-08-21T09:35:28.374Z,94.40
2023-08-21T09:37:58.155Z,64.50
2023-08-21T09:40:28.217Z,82.07
2023-08-21T09:43:00.142Z,76.53
2023-08-21T09:45:30.764Z,61.30
2023-08-21T09:48:01.349Z,75.83
2023-08-21T09:50:31.628Z,72.20
2023-08-21T09:53:01.479Z,72.80
2023-08-21T09:55:33.844Z,73.20
2023-08-21T09:58:05.476Z,63.20
2023-08-21T10:00:36.873Z,60.00
2023-08-21T10:03:11.353Z,69.30
2023-08-21T10:05:42.134Z,66.67
2023-08-21T10:08:12.811Z,62.90
2023-08-21T10:10:43.051Z,64.70
2023-08-21T10:13:14.392Z,68.63
2023-08-21T10:15:48.891Z,89.47
2023-08-21T10:18:21.519Z,63.60
2023-08-21T10:20:52.289Z,67.53
2023-08-21T10:23:30.450Z,62.33
2023-08-21T10:26:02.189Z,82.67
2023-08-21T10:28:51.134Z,64.13
2023-08-21T10:31:32.170Z,74.93
2023-08-21T10:34:04.624Z,59.43
2023-08-21T10:36:41.365Z,78.93
2023-08-21T10:39:18.706Z,63.73
2023-08-21T10:41:58.711Z,65.63
2023-08-21T10:44:52.404Z,58.33
2023-08-21T10:47:24.218Z,65.13
2023-08-21T10:49:55.865Z,65.23
2023-08-21T10:52:27.730Z,67.03
2023-08-21T10:54:59.413Z,82.37
2023-08-21T10:57:31.171Z,66.40
2023-08-21T11:00:05.347Z,58.43
2023-08-21T11:02:38.477Z,79.33
2023-08-21T11:05:10.345Z,95.87
2023-08-21T11:07:42.716Z,88.90
2023-08-21T11:10:14.579Z,85.37
2023-08-21T11:12:51.890Z,79.73
2023-08-21T11:15:24.626Z,129.07
2023-08-21T11:17:56.640Z,120.27
2023-08-21T11:20:31.011Z,102.27
2023-08-21T11:23:01.840Z,115.73
2023-08-21T11:25:32.419Z,103.20
2023-08-21T11:28:04.016Z,117.37
2023-08-21T11:30:35.894Z,100.00
2023-08-21T11:33:09.820Z,108.40
2023-08-21T11:35:40.458Z,105.37
2023-08-21T11:38:17.921Z,112.13
2023-08-21T11:40:57.892Z,126.27
2023-08-21T11:43:38.683Z,113.83
2023-08-21T11:46:11.541Z,75.50
2023-08-21T11:48:43.694Z,89.87
2023-08-21T11:51:59.365Z,117.70
2023-08-21T11:55:30.838Z,133.93
2023-08-21T11:58:22.542Z,127.40
2023-08-21T12:00:52.765Z,134.40
2023-08-21T12:03:24.534Z,135.37
2023-08-21T12:05:54.577Z,144.97
2023-08-21T12:08:24.863Z,138.27
2023-08-21T12:10:55.274Z,144.03
2023-08-21T12:13:26.520Z,148.33
2023-08-21T12:15:57.969Z,105.70
2023-08-21T12:18:29.754Z,91.63
2023-08-21T12:21:00.093Z,64.43
2023-08-21T12:23:30.456Z,60.67
2023-08-21T12:26:02.303Z,66.30
2023-08-21T12:28:32.645Z,93.87
2023-08-21T12:31:02.392Z,53.67
2023-08-21T12:33:33.994Z,51.50
2023-08-21T12:36:04.456Z,51.30
2023-08-21T12:38:34.660Z,53.57
2023-08-21T12:41:05.006Z,59.13
2023-08-21T12:43:35.376Z,52.60
2023-08-21T12:46:05.377Z,55.17
2023-08-21T12:48:37.385Z,48.40
2023-08-21T12:51:08.343Z,52.00
2023-08-21T12:53:38.695Z,54.37
2023-08-21T12:56:08.586Z,46.57
2023-08-21T12:58:38.368Z,43.50
2023-08-21T13:01:08.822Z,43.17
2023-08-21T13:03:40.649Z,49.80
2023-08-21T13:06:10.966Z,42.47
2023-08-21T13:08:41.058Z,47.80
2023-08-21T13:11:11.613Z,43.90
2023-08-21T13:13:41.606Z,42.87
2023-08-21T13:16:11.710Z,43.10
2023-08-21T13:18:42.915Z,44.53
2023-08-21T13:21:13.347Z,44.60
2023-08-21T13:23:43.113Z,44.60
2023-08-21T13:26:13.557Z,42.47
2023-08-21T13:28:43.351Z,43.30
2023-08-21T13:31:13.271Z,44.47
2023-08-21T13:33:50.277Z,46.67
2023-08-21T13:36:24.819Z,51.30
2023-08-21T13:38:55.369Z,46.60
2023-08-21T13:41:25.372Z,46.70
2023-08-21T13:43:55.855Z,43.37
2023-08-21T13:46:26.262Z,46.37
2023-08-21T13:48:57.369Z,51.50
2023-08-21T13:51:28.168Z,45.00
2023-08-21T13:53:58.128Z,44.47
2023-08-21T13:56:27.927Z,47.53
2023-08-21T13:58:57.923Z,45.43
2023-08-21T14:01:27.930Z,43.93
2023-08-21T14:04:00.062Z,42.87
2023-08-21T14:06:30.840Z,43.10
2023-08-21T14:09:00.629Z,43.90
2023-08-21T14:11:30.738Z,50.60
2023-08-21T14:14:00.854Z,46.77
2023-08-21T14:16:30.902Z,43.77
2023-08-21T14:19:02.092Z,53.83
2023-08-21T14:21:32.256Z,48.83
2023-08-21T14:24:02.017Z,47.87
2023-08-21T14:26:32.169Z,44.87
2023-08-21T14:29:02.081Z,44.93
2023-08-21T14:31:32.240Z,50.60
2023-08-21T14:34:03.397Z,63.83
2023-08-21T14:36:33.713Z,62.03
2023-08-21T14:39:04.755Z,46.30
2023-08-21T14:41:34.957Z,47.37
2023-08-21T14:44:04.831Z,43.77
2023-08-21T14:46:42.603Z,49.87
2023-08-21T14:49:14.680Z,48.50
2023-08-21T14:51:45.347Z,49.60
2023-08-21T14:54:15.546Z,56.03
2023-08-21T14:56:45.937Z,49.40
2023-08-21T14:59:16.068Z,46.10
2023-08-21T15:01:45.921Z,49.00
2023-08-21T15:04:17.129Z,48.70
2023-08-21T15:06:47.440Z,45.20
2023-08-21T15:09:17.600Z,46.50
2023-08-21T15:11:47.554Z,48.23
2023-08-21T15:14:17.614Z,45.57
2023-08-21T15:16:47.384Z,70.77
2023-08-21T15:19:18.503Z,44.00
2023-08-21T15:21:48.260Z,48.80
2023-08-21T15:24:18.347Z,47.87
2023-08-21T15:26:48.100Z,46.47
2023-08-21T15:29:17.954Z,44.60
2023-08-21T15:31:47.751Z,46.73
2023-08-21T15:34:18.981Z,49.93
2023-08-21T15:36:48.869Z,49.80
2023-08-21T15:39:19.970Z,47.40
2023-08-21T15:41:50.009Z,50.30
2023-08-21T15:44:20.038Z,44.73
2023-08-21T15:46:50.761Z,45.83
2023-08-21T15:49:24.878Z,48.30
2023-08-21T15:51:54.669Z,68.87
2023-08-21T15:54:32.439Z,50.10
2023-08-21T15:57:02.801Z,53.87
2023-08-21T15:59:33.403Z,46.70
2023-08-21T16:02:04.453Z,53.33
2023-08-21T16:04:35.593Z,46.87
2023-08-21T16:07:06.044Z,43.40
2023-08-21T16:09:36.522Z,46.87
2023-08-21T16:12:07.320Z,49.07
2023-08-21T16:14:37.219Z,48.07
2023-08-21T16:17:08.411Z,51.40
2023-08-21T16:19:39.950Z,46.30
2023-08-21T16:22:09.918Z,44.67
2023-08-21T16:24:39.741Z,45.50
2023-08-21T16:27:10.176Z,56.53
2023-08-21T16:29:40.359Z,52.60
2023-08-21T16:32:10.283Z,53.23
2023-08-21T16:34:41.501Z,49.70
2023-08-21T16:37:11.265Z,47.40
2023-08-21T16:39:41.168Z,50.27
2023-08-21T16:42:10.936Z,55.13
2023-08-21T16:44:40.972Z,46.67
2023-08-21T16:47:11.128Z,49.60
2023-08-21T16:49:42.257Z,48.47
2023-08-21T16:52:12.333Z,45.23
2023-08-21T16:54:42.269Z,47.10
2023-08-21T16:57:12.096Z,50.87
2023-08-21T16:59:41.896Z,49.47
2023-08-21T17:02:11.629Z,56.80
2023-08-21T17:04:42.742Z,49.00
2023-08-21T17:07:12.566Z,51.27
2023-08-21T17:09:45.892Z,50.40
2023-08-21T17:12:16.296Z,49.40
2023-08-21T17:14:46.276Z,62.50
2023-08-21T17:17:16.386Z,50.83
2023-08-21T17:19:47.541Z,54.43
2023-08-21T17:22:17.322Z,88.63
2023-08-21T17:24:47.334Z,123.30
2023-08-21T17:27:18.815Z,152.00
2023-08-21T17:29:48.954Z,357.87
2023-08-21T17:32:17.834Z,488.83
2023-08-21T17:34:49.034Z,498.30
2023-08-21T17:37:19.691Z,811.90
2023-08-21T17:39:49.867Z,139.87
2023-08-21T17:42:19.670Z,161.67
2023-08-21T17:44:49.700Z,199.90
2023-08-21T17:47:19.546Z,405.40
2023-08-21T17:49:51.393Z,568.53
2023-08-21T17:52:21.238Z,564.67
2023-08-21T17:54:51.263Z,609.37
2023-08-21T17:57:22.585Z,540.10
2023-08-21T17:59:52.514Z,484.33
2023-08-21T18:04:57.676Z,1082.77
2023-08-21T18:07:29.281Z,801.43
2023-08-21T18:09:59.189Z,677.13
2023-08-21T18:12:28.978Z,822.07
2023-08-21T18:14:58.987Z,243.80
2023-08-21T18:17:28.934Z,249.20
2023-08-21T18:20:00.148Z,441.17
2023-08-21T18:22:30.076Z,413.80
2023-08-21T18:24:59.853Z,651.67
2023-08-21T18:27:29.635Z,352.83
2023-08-21T18:29:59.836Z,351.97
2023-08-21T18:32:29.701Z,655.33
2023-08-21T18:35:02.200Z,583.87
2023-08-21T18:37:34.018Z,563.47
2023-08-21T18:40:05.413Z,892.43
2023-08-21T18:42:35.285Z,1765.30
2023-08-21T18:45:05.809Z,2266.67
2023-08-21T18:47:35.740Z,2131.37
2023-08-21T18:50:07.740Z,1828.30
2023-08-21T18:52:38.162Z,1325.40
2023-08-21T18:55:08.898Z,1627.27
2023-08-21T18:57:39.287Z,1453.43
2023-08-21T19:00:13.466Z,1334.23
2023-08-21T19:02:43.411Z,980.43
2023-08-21T19:05:14.672Z,709.40
2023-08-21T19:07:44.497Z,522.90
2023-08-21T19:10:14.746Z,665.87
2023-08-21T19:12:44.608Z,661.67
2023-08-21T19:15:15.878Z,708.17
2023-08-21T19:17:46.008Z,981.77
2023-08-21T19:20:17.242Z,1085.00
2023-08-21T19:22:47.088Z,1318.10
2023-08-21T19:25:16.883Z,1286.33
2023-08-21T19:27:46.648Z,1287.13
2023-08-21T19:30:16.850Z,1396.33
2023-08-21T19:32:46.698Z,1603.83
2023-08-21T19:35:17.926Z,1211.10
2023-08-21T19:37:48.024Z,1457.67
2023-08-21T19:40:18.028Z,1373.93
2023-08-21T19:42:47.998Z,1338.03
2023-08-21T19:45:20.425Z,1175.57
2023-08-21T19:47:50.512Z,1437.27
2023-08-21T19:50:21.686Z,1363.63
2023-08-21T19:52:51.557Z,1256.83
2023-08-21T19:55:21.546Z,1218.43
2023-08-21T19:57:51.312Z,1281.73
2023-08-21T20:00:21.180Z,1553.83
2023-08-21T20:02:51.387Z,1459.30
2023-08-21T20:05:22.609Z,1630.93
2023-08-21T20:07:52.475Z,1732.63
2023-08-21T20:10:22.299Z,1778.10
2023-08-21T20:12:53.850Z,1650.03
2023-08-21T20:15:23.628Z,1560.67
2023-08-21T20:17:53.466Z,1337.83
2023-08-21T20:20:26.540Z,1348.20
2023-08-21T20:22:56.381Z,1474.30
2023-08-21T20:25:26.162Z,1575.77
2023-08-21T20:27:56.045Z,1408.83
2023-08-21T20:30:25.842Z,1219.00
2023-08-21T20:32:55.645Z,1236.10
2023-08-21T20:35:27.091Z,1327.90
2023-08-21T20:37:57.069Z,1404.77
2023-08-21T20:40:27.031Z,1360.27
2023-08-21T20:42:56.911Z,1220.07
2023-08-21T20:45:28.176Z,1186.13
2023-08-21T20:47:58.059Z,1254.27
2023-08-21T20:50:30.621Z,1180.33
2023-08-21T20:53:00.452Z,1114.30
2023-08-21T20:55:30.318Z,1054.33
2023-08-21T20:58:00.108Z,1080.03
2023-08-21T21:00:29.945Z,1184.37
2023-08-21T21:02:59.740Z,1111.40
2023-08-21T21:05:30.974Z,1089.40
2023-08-21T21:08:00.815Z,1180.87
2023-08-21T21:10:30.628Z,1221.13
2023-08-21T21:13:00.824Z,1052.77
2023-08-21T21:15:31.331Z,1219.07
2023-08-21T21:18:02.385Z,1349.20
2023-08-21T21:20:33.691Z,1438.83
2023-08-21T21:23:03.624Z,1448.40
2023-08-21T21:25:33.430Z,1468.60
2023-08-21T21:28:03.225Z,1568.83
2023-08-21T21:30:33.041Z,1502.30
2023-08-21T21:33:02.871Z,1479.43
2023-08-21T21:35:34.374Z,1706.50
2023-08-21T21:38:04.607Z,1698.50
2023-08-21T21:40:34.532Z,1696.93
2023-08-21T21:43:04.574Z,1556.63
2023-08-21T21:45:36.449Z,1690.47
2023-08-21T21:48:06.870Z,1667.53
2023-08-21T21:50:38.172Z,1494.17
2023-08-21T21:53:07.961Z,1376.60
2023-08-21T21:55:37.864Z,1362.23
2023-08-21T21:58:07.820Z,1425.43
2023-08-21T22:00:37.573Z,1556.97
2023-08-21T22:03:07.558Z,1551.20
2023-08-21T22:05:38.870Z,1527.83
2023-08-21T22:08:08.925Z,1549.10
2023-08-21T22:10:39.409Z,1531.43
2023-08-21T22:13:16.837Z,1583.43
2023-08-21T22:15:47.382Z,1587.13
2023-08-21T22:18:17.441Z,1652.17
2023-08-21T22:20:49.766Z,1635.90
2023-08-21T22:23:20.083Z,1552.20
2023-08-21T22:25:49.858Z,1319.97
2023-08-21T22:28:21.001Z,1330.87
2023-08-21T22:30:50.816Z,1436.40
2023-08-21T22:33:20.592Z,1464.00
2023-08-21T22:35:51.796Z,1382.57
2023-08-21T22:38:21.653Z,1425.87
2023-08-21T22:40:51.454Z,1405.57
2023-08-21T22:43:21.221Z,1505.10
2023-08-21T22:45:51.115Z,1478.73
2023-08-21T22:48:21.201Z,1442.63
2023-08-21T22:50:52.344Z,1502.57
2023-08-21T22:53:22.182Z,1383.13
2023-08-21T22:55:55.030Z,1401.60
2023-08-21T22:58:24.808Z,1295.60
2023-08-21T23:00:54.610Z,1422.00
2023-08-21T23:03:24.408Z,1500.17
2023-08-21T23:05:56.528Z,1498.67
2023-08-21T23:08:26.992Z,1455.77
2023-08-21T23:10:56.764Z,1437.93
2023-08-21T23:13:26.505Z,1435.37
2023-08-21T23:15:56.415Z,1398.67
2023-08-21T23:18:26.409Z,1502.37
2023-08-21T23:21:01.885Z,1517.33
2023-08-21T23:23:31.795Z,1637.80
2023-08-21T23:26:02.514Z,1666.83
2023-08-21T23:28:32.973Z,1563.87
2023-08-21T23:31:02.905Z,1545.03
2023-08-21T23:33:32.956Z,1652.10
2023-08-21T23:36:04.613Z,1503.13
2023-08-21T23:38:34.896Z,1538.33
2023-08-21T23:41:05.241Z,1405.00
2023-08-21T23:43:35.094Z,1270.03
2023-08-21T23:46:04.854Z,1169.03
2023-08-21T23:48:34.927Z,1162.50
2023-08-21T23:51:08.557Z,1354.33
2023-08-21T23:53:38.382Z,1351.27
2023-08-21T23:56:08.322Z,1512.23
2023-08-21T23:58:38.997Z,1472.43
